Laughlin A F B, Texas
Current Conditions -  °F | °C
As of 12:58 PM on Friday 24 Oct 2014 (Local Time) from KDLF Reporting Station
Clear Clear  
Wind Chill: 80°   Ceiling: Unl
Heat Index: 81°   Visibility: 10mi
Dew Point: 64°   Wind: 8mph
Humidity: 59%   Direction: 200°SSW
Pressure: 30.16"   Gusts: NA
Location:  29.3564°N, 100.7927°W
Report Text: KDLF 241758Z AUTO 20007KT 10SM CLR 26/18 A3016 RMK AO2 SLP203 T02640178 10264 20154 58004 $
Loading
Personal Weather Stations






























Interactive Weather Map
Tropical Storm Tracking
New forecast layout! Learn more

10-Day Weather Forecast

Advertisements
Track Severe Weather on mobile